createdAt,value
2023-03-08T00:01:27.401Z,92830.66
2023-03-08T00:03:57.261Z,92837.81
2023-03-08T00:06:26.062Z,92837.47
2023-03-08T00:08:57.945Z,92844.81
2023-03-08T00:11:25.508Z,92851.34
2023-03-08T00:13:52.393Z,92843.88
2023-03-08T00:16:19.084Z,92856.31
2023-03-08T00:18:45.793Z,92857.09
2023-03-08T00:21:15.248Z,92869.69
2023-03-08T00:23:43.604Z,92858.47
2023-03-08T00:26:11.856Z,92861.91
2023-03-08T00:28:39.012Z,92880.28
2023-03-08T00:31:08.870Z,92884.47
2023-03-08T00:33:36.386Z,92881.22
2023-03-08T00:36:14.327Z,92875.91
2023-03-08T00:38:41.153Z,92884.63
2023-03-08T00:41:08.277Z,92882.28
2023-03-08T00:43:35.302Z,92883.53
2023-03-08T00:46:04.688Z,92888.19
2023-03-08T00:48:31.840Z,92888.19
2023-03-08T00:50:58.699Z,92872.66
2023-03-08T00:53:25.706Z,92870.63
2023-03-08T00:55:55.219Z,92878.84
2023-03-08T00:58:23.444Z,92892.25
2023-03-08T01:00:50.951Z,92880.13
2023-03-08T01:03:19.126Z,92884.94
2023-03-08T01:05:49.116Z,92874.97
2023-03-08T01:08:17.353Z,92879.19
2023-03-08T01:10:57.662Z,92876.22
2023-03-08T01:13:26.419Z,92867.03
2023-03-08T01:15:53.121Z,92859.72
2023-03-08T01:18:19.925Z,92853.97
2023-03-08T01:21:02.137Z,92843.09
2023-03-08T01:23:29.853Z,92839.03
2023-03-08T01:26:04.846Z,92834.22
2023-03-08T01:28:32.778Z,92843.88
2023-03-08T01:31:18.003Z,92837.81
2023-03-08T01:33:45.340Z,92833.31
2023-03-08T01:36:17.251Z,92827.84
2023-03-08T01:38:45.486Z,92824.59
2023-03-08T01:41:28.468Z,92833.00
2023-03-08T01:43:55.717Z,92830.81
2023-03-08T01:46:26.133Z,92817.13
2023-03-08T01:49:18.529Z,92816.03
2023-03-08T01:52:04.446Z,92822.09
2023-03-08T01:54:46.896Z,92815.41
2023-03-08T01:57:19.652Z,92814.63
2023-03-08T01:59:49.625Z,92811.06
2023-03-08T02:02:22.274Z,92805.75
2023-03-08T02:04:49.006Z,92791.59
2023-03-08T02:07:15.798Z,92787.41
2023-03-08T02:09:43.472Z,92778.09
2023-03-08T02:12:13.032Z,92780.75
2023-03-08T02:14:42.658Z,92775.47
2023-03-08T02:17:10.195Z,92762.25
2023-03-08T02:19:46.312Z,92756.63
2023-03-08T02:22:15.009Z,92752.75
2023-03-08T02:24:41.661Z,92761.31
2023-03-08T02:27:13.624Z,92742.50
2023-03-08T02:29:40.626Z,92749.03
2023-03-08T02:32:07.779Z,92757.25
2023-03-08T02:34:36.289Z,92756.31
2023-03-08T02:37:02.980Z,92761.75
2023-03-08T02:39:29.976Z,92755.84
2023-03-08T02:41:56.635Z,92762.06
2023-03-08T02:44:23.376Z,92749.97
2023-03-08T02:46:53.027Z,92749.34
2023-03-08T02:49:19.860Z,92752.75
2023-03-08T02:51:46.592Z,92744.34
2023-03-08T02:54:16.794Z,92742.63
2023-03-08T02:56:43.609Z,92742.63
2023-03-08T02:59:12.978Z,92745.59
2023-03-08T03:01:39.783Z,92736.09
2023-03-08T03:04:06.520Z,92733.31
2023-03-08T03:06:34.232Z,92734.88
2023-03-08T03:09:00.899Z,92731.13
2023-03-08T03:11:27.779Z,92730.81
2023-03-08T03:13:59.254Z,92733.78
2023-03-08T03:16:30.906Z,92730.19
2023-03-08T03:18:57.644Z,92737.38
2023-03-08T03:21:25.090Z,92718.41
2023-03-08T03:23:55.244Z,92731.13
2023-03-08T03:26:27.695Z,92722.75
2023-03-08T03:28:57.505Z,92716.25
2023-03-08T03:31:27.527Z,92712.34
2023-03-08T03:33:54.898Z,92713.25
2023-03-08T03:36:24.695Z,92715.28
2023-03-08T03:38:52.078Z,92712.63
2023-03-08T03:41:21.662Z,92699.75
2023-03-08T03:43:52.236Z,92705.03
2023-03-08T03:46:21.645Z,92702.88
2023-03-08T03:48:52.240Z,92673.66
2023-03-08T03:51:23.794Z,92700.22
2023-03-08T03:53:59.357Z,92684.38
2023-03-08T03:56:28.278Z,92695.41
2023-03-08T03:58:59.169Z,92690.56
2023-03-08T04:01:29.838Z,92688.28
2023-03-08T04:04:14.001Z,92683.44
2023-03-08T04:06:43.380Z,92663.69
2023-03-08T04:09:16.103Z,92689.34
2023-03-08T04:11:45.561Z,92683.91
2023-03-08T04:14:17.411Z,92677.22
2023-03-08T04:16:44.582Z,92664.78
2023-03-08T04:19:18.823Z,92660.44
2023-03-08T04:21:51.344Z,92661.22
2023-03-08T04:24:22.680Z,92660.91
2023-03-08T04:26:52.932Z,92663.38
2023-03-08T04:29:20.705Z,92655.94
2023-03-08T04:31:47.636Z,92653.78
2023-03-08T04:34:18.296Z,92653.63
2023-03-08T04:36:48.107Z,92639.63
2023-03-08T04:39:14.819Z,92638.53
2023-03-08T04:41:43.405Z,92632.00
2023-03-08T04:44:24.264Z,92620.53
2023-03-08T04:46:53.672Z,92627.97
2023-03-08T04:49:29.966Z,92624.72
2023-03-08T04:52:00.676Z,92619.75
2023-03-08T04:54:28.363Z,92613.06
2023-03-08T04:57:10.286Z,92624.41
2023-03-08T04:59:38.434Z,92633.72
2023-03-08T05:02:06.218Z,92634.19
2023-03-08T05:04:35.373Z,92630.47
2023-03-08T05:07:02.137Z,92621.28
2023-03-08T05:09:32.345Z,92635.44
2023-03-08T05:11:59.544Z,92622.56
2023-03-08T05:14:34.825Z,92624.72
2023-03-08T05:17:02.542Z,92629.53
2023-03-08T05:19:32.294Z,92616.03
2023-03-08T05:21:59.010Z,92611.69
2023-03-08T05:24:27.331Z,92609.97
2023-03-08T05:26:55.333Z,92606.69
2023-03-08T05:29:23.086Z,92591.94
2023-03-08T05:31:50.649Z,92593.34
2023-03-08T05:34:18.237Z,92592.09
2023-03-08T05:36:47.394Z,92588.69
2023-03-08T05:39:14.209Z,92568.97
2023-03-08T05:41:54.077Z,92579.06
2023-03-08T05:44:27.230Z,92580.75
2023-03-08T05:46:54.929Z,92578.72
2023-03-08T05:49:22.608Z,92577.31
2023-03-08T05:51:49.335Z,92568.66
2023-03-08T05:54:16.777Z,92580.75
2023-03-08T05:56:46.242Z,92584.47
2023-03-08T05:59:26.782Z,92584.63
2023-03-08T06:01:57.312Z,92593.34
2023-03-08T06:04:40.081Z,92594.41
2023-03-08T06:07:06.836Z,92602.19
2023-03-08T06:09:38.258Z,92605.91
2023-03-08T06:12:06.796Z,92602.97
2023-03-08T06:14:33.966Z,92593.78
2023-03-08T06:17:00.949Z,92578.56
2023-03-08T06:19:31.022Z,92569.41
2023-03-08T06:21:57.684Z,92577.78
2023-03-08T06:24:24.376Z,92584.91
2023-03-08T06:26:51.719Z,92572.47
2023-03-08T06:29:18.326Z,92584.75
2023-03-08T06:31:44.983Z,92580.41
2023-03-08T06:34:13.204Z,92571.53
2023-03-08T06:36:41.091Z,92574.97
2023-03-08T06:39:07.880Z,92575.59
2023-03-08T06:41:36.205Z,92582.72
2023-03-08T06:44:04.580Z,92570.03
2023-03-08T06:46:31.268Z,92562.88
2023-03-08T06:49:00.385Z,92573.75
2023-03-08T06:51:28.749Z,92572.34
2023-03-08T06:53:55.370Z,92564.75
2023-03-08T06:56:26.618Z,92559.16
2023-03-08T06:58:53.375Z,92554.03
2023-03-08T07:01:20.188Z,92554.03
2023-03-08T07:03:48.779Z,92557.28
2023-03-08T07:06:15.783Z,92552.78
2023-03-08T07:08:42.418Z,92548.84
2023-03-08T07:11:09.877Z,92532.09
2023-03-08T07:13:38.248Z,92530.06
2023-03-08T07:16:10.312Z,92542.00
2023-03-08T07:18:37.142Z,92526.00
2023-03-08T07:21:04.762Z,92518.38
2023-03-08T07:23:31.613Z,92504.69
2023-03-08T07:25:58.320Z,92492.41
2023-03-08T07:28:25.563Z,92485.72
2023-03-08T07:30:53.555Z,92489.31
2023-03-08T07:33:21.876Z,92481.56
2023-03-08T07:35:49.199Z,92481.56
2023-03-08T07:38:16.392Z,92498.75
2023-03-08T07:40:43.461Z,92485.22
2023-03-08T07:43:10.478Z,92493.28
2023-03-08T07:45:53.891Z,92491.84
2023-03-08T07:48:20.524Z,92478.09
2023-03-08T07:50:47.202Z,92478.44
2023-03-08T07:53:13.916Z,92481.84
2023-03-08T07:55:40.585Z,92471.47
2023-03-08T07:58:07.242Z,92466.00
2023-03-08T08:00:34.033Z,92461.63
2023-03-08T08:03:00.693Z,92464.03
2023-03-08T08:05:27.487Z,92470.06
2023-03-08T08:07:54.237Z,92453.13
2023-03-08T08:10:21.002Z,92451.66
2023-03-08T08:12:47.949Z,92448.19
2023-03-08T08:15:16.901Z,92433.13
2023-03-08T08:17:43.613Z,92435.38
2023-03-08T08:20:11.059Z,92437.19
2023-03-08T08:22:38.265Z,92428.81
2023-03-08T08:25:06.639Z,92441.13
2023-03-08T08:27:33.736Z,92437.78
2023-03-08T08:30:00.498Z,92435.19
2023-03-08T08:32:27.549Z,92439.72
2023-03-08T08:34:54.224Z,92440.50
2023-03-08T08:37:21.025Z,92421.84
2023-03-08T08:39:47.681Z,92434.69
2023-03-08T08:42:14.318Z,92398.63
2023-03-08T08:44:40.930Z,92406.88
2023-03-08T08:47:07.597Z,92395.97
2023-03-08T08:49:34.230Z,92395.31
2023-03-08T08:52:00.979Z,92379.31
2023-03-08T08:54:27.730Z,92370.75
2023-03-08T08:56:54.434Z,92357.00
2023-03-08T08:59:21.188Z,92333.38
2023-03-08T09:01:48.923Z,92346.19
2023-03-08T09:04:17.149Z,92343.91
2023-03-08T09:06:44.108Z,92313.75
2023-03-08T09:09:10.725Z,92339.78
2023-03-08T09:11:48.555Z,92320.28
2023-03-08T09:14:20.225Z,92322.28
2023-03-08T09:16:47.071Z,92330.75
2023-03-08T09:19:13.750Z,92331.78
2023-03-08T09:21:40.405Z,92345.59
2023-03-08T09:24:09.449Z,92342.19
2023-03-08T09:26:36.436Z,92332.50
2023-03-08T09:29:05.558Z,92331.06
2023-03-08T09:31:34.330Z,92328.00
2023-03-08T09:34:01.340Z,92327.47
2023-03-08T09:36:28.874Z,92321.16
2023-03-08T09:38:56.365Z,92325.38
2023-03-08T09:42:00.180Z,92316.63
2023-03-08T09:44:47.806Z,92322.03
2023-03-08T09:47:47.138Z,92313.97
2023-03-08T09:50:13.835Z,92312.19
2023-03-08T09:52:46.507Z,92308.97
2023-03-08T09:55:17.627Z,92314.38
2023-03-08T09:57:53.048Z,92294.16
2023-03-08T10:00:23.675Z,92281.28
2023-03-08T10:02:57.450Z,92294.00
2023-03-08T10:05:27.076Z,92282.88
2023-03-08T10:08:13.493Z,92293.06
2023-03-08T10:11:00.436Z,92270.41
2023-03-08T10:13:35.181Z,92273.25
2023-03-08T10:16:24.142Z,92264.28
2023-03-08T10:18:50.771Z,92264.78
2023-03-08T10:21:23.052Z,92264.31
2023-03-08T10:24:00.475Z,92258.94
2023-03-08T10:26:28.299Z,92252.47
2023-03-08T10:28:55.191Z,92249.72
2023-03-08T10:31:23.872Z,92241.69
2023-03-08T10:33:57.515Z,92238.81
2023-03-08T10:36:25.953Z,92239.78
2023-03-08T10:39:16.568Z,92238.41
2023-03-08T10:41:46.211Z,92237.63
2023-03-08T10:44:40.226Z,92242.50
2023-03-08T10:47:24.542Z,92241.19
2023-03-08T10:50:17.888Z,92237.91
2023-03-08T10:52:46.745Z,92236.69
2023-03-08T10:55:16.712Z,92239.00
2023-03-08T10:57:51.456Z,92222.28
2023-03-08T11:00:25.146Z,92235.72
2023-03-08T11:03:03.469Z,92230.13
2023-03-08T11:05:30.156Z,92229.84
2023-03-08T11:07:59.983Z,92227.75
2023-03-08T11:10:29.020Z,92240.09
2023-03-08T11:13:26.079Z,92223.19
2023-03-08T11:16:25.044Z,92220.41
2023-03-08T11:19:06.853Z,92220.94
2023-03-08T11:22:02.294Z,92219.38
2023-03-08T11:24:50.846Z,92220.31
2023-03-08T11:27:46.750Z,92221.66
2023-03-08T11:30:13.367Z,92234.00
2023-03-08T11:32:49.933Z,92220.13
2023-03-08T11:35:35.321Z,92221.38
2023-03-08T11:38:17.443Z,92210.44
2023-03-08T11:40:57.265Z,92192.63
2023-03-08T11:43:44.765Z,92204.97
2023-03-08T11:46:19.564Z,92197.22
2023-03-08T11:49:11.394Z,92213.00
2023-03-08T11:51:54.359Z,92195.44
2023-03-08T11:54:51.202Z,92193.66
2023-03-08T11:57:18.550Z,92194.53
2023-03-08T11:59:52.878Z,92197.69
2023-03-08T12:02:29.773Z,92190.47
2023-03-08T12:05:09.754Z,92190.19
2023-03-08T12:07:43.401Z,92187.19
2023-03-08T12:10:13.016Z,92190.69
2023-03-08T12:12:44.149Z,92188.03
2023-03-08T12:15:26.364Z,92189.16
2023-03-08T12:18:03.612Z,92190.69
2023-03-08T12:20:35.659Z,92195.66
2023-03-08T12:23:12.818Z,92195.00
2023-03-08T12:25:42.468Z,92195.34
2023-03-08T12:28:28.804Z,92191.59
2023-03-08T12:31:28.596Z,92191.28
2023-03-08T12:33:58.220Z,92187.97
2023-03-08T12:36:43.355Z,92194.53
2023-03-08T12:39:27.589Z,92196.88
2023-03-08T12:42:16.238Z,92189.25
2023-03-08T12:44:44.077Z,92197.75
2023-03-08T12:47:13.771Z,92195.16
2023-03-08T12:49:43.649Z,92197.47
2023-03-08T12:52:19.669Z,92205.50
2023-03-08T12:55:18.389Z,92197.88
2023-03-08T12:57:55.639Z,92204.81
2023-03-08T13:00:39.343Z,92197.19
2023-03-08T13:03:12.228Z,92200.66
2023-03-08T13:05:41.260Z,92203.69
2023-03-08T13:08:28.875Z,92212.06
2023-03-08T13:10:55.525Z,92213.56
2023-03-08T13:13:57.463Z,92217.34
2023-03-08T13:16:33.511Z,92211.38
2023-03-08T13:19:03.362Z,92206.00
2023-03-08T13:21:36.534Z,92201.41
2023-03-08T13:24:10.116Z,92207.56
2023-03-08T13:26:55.794Z,92212.91
2023-03-08T13:29:22.570Z,92206.03
2023-03-08T13:31:50.226Z,92200.31
2023-03-08T13:34:32.251Z,92208.38
2023-03-08T13:36:59.297Z,92206.47
2023-03-08T13:39:28.374Z,92201.53
2023-03-08T13:42:09.924Z,92210.69
2023-03-08T13:44:36.925Z,92215.66
2023-03-08T13:47:24.676Z,92205.50
2023-03-08T13:49:53.739Z,92205.28
2023-03-08T13:52:24.014Z,92203.59
2023-03-08T13:54:56.682Z,92210.97
2023-03-08T13:57:27.051Z,92207.19
2023-03-08T13:59:56.347Z,92198.66
2023-03-08T14:02:31.505Z,92195.19
2023-03-08T14:04:59.384Z,92196.59
2023-03-08T14:07:28.415Z,92200.41
2023-03-08T14:09:55.722Z,92189.31
2023-03-08T14:12:27.657Z,92192.34
2023-03-08T14:15:05.384Z,92168.28
2023-03-08T14:17:35.056Z,92179.41
2023-03-08T14:20:19.271Z,92182.09
2023-03-08T14:22:51.404Z,92166.81
2023-03-08T14:25:30.274Z,92166.47
2023-03-08T14:27:57.770Z,92168.81
2023-03-08T14:30:27.033Z,92161.22
2023-03-08T14:33:26.298Z,92170.78
2023-03-08T14:36:00.178Z,92158.56
2023-03-08T14:38:30.278Z,92173.44
2023-03-08T14:40:58.289Z,92172.28
2023-03-08T14:43:26.454Z,92166.16
2023-03-08T14:46:00.824Z,92167.63
2023-03-08T14:48:33.175Z,92158.47
2023-03-08T14:51:18.873Z,92162.59
2023-03-08T14:53:58.010Z,92167.56
2023-03-08T14:56:24.630Z,92155.00
2023-03-08T14:58:52.398Z,92152.31
2023-03-08T15:01:28.228Z,92142.75
2023-03-08T15:03:55.861Z,92140.47
2023-03-08T15:06:29.917Z,92144.25
2023-03-08T15:08:58.618Z,92129.31
2023-03-08T15:11:27.071Z,92125.78
2023-03-08T15:13:53.824Z,92119.28
2023-03-08T15:16:20.612Z,92123.44
2023-03-08T15:18:47.383Z,92136.31
2023-03-08T15:21:18.308Z,92134.41
2023-03-08T15:23:45.295Z,92127.91
2023-03-08T15:26:17.510Z,92137.91
2023-03-08T15:28:44.058Z,92128.75
2023-03-08T15:31:10.725Z,92121.53
2023-03-08T15:33:37.651Z,92120.81
2023-03-08T15:36:04.946Z,92126.94
2023-03-08T15:38:31.792Z,92113.22
2023-03-08T15:40:58.556Z,92118.56
2023-03-08T15:43:25.284Z,92113.22
2023-03-08T15:45:51.959Z,92118.59
2023-03-08T15:48:19.057Z,92117.84
2023-03-08T15:50:46.283Z,92109.00
2023-03-08T15:53:18.558Z,92103.66
2023-03-08T15:55:50.068Z,92113.22
2023-03-08T15:58:16.749Z,92101.44
2023-03-08T16:00:43.355Z,92098.78
2023-03-08T16:03:14.083Z,92105.28
2023-03-08T16:05:40.778Z,92109.50
2023-03-08T16:08:07.423Z,92106.47
2023-03-08T16:10:40.725Z,92112.56
2023-03-08T16:13:08.416Z,92127.13
2023-03-08T16:15:35.143Z,92111.47
2023-03-08T16:18:01.797Z,92110.31
2023-03-08T16:20:28.445Z,92107.28
2023-03-08T16:22:55.690Z,92111.50
2023-03-08T16:25:23.204Z,92107.31
2023-03-08T16:27:50.074Z,92112.31
2023-03-08T16:30:17.054Z,92101.59
2023-03-08T16:32:43.797Z,92090.09
2023-03-08T16:35:10.666Z,92108.13
2023-03-08T16:37:37.393Z,92106.59
2023-03-08T16:40:07.495Z,92112.31
2023-03-08T16:42:34.624Z,92109.63
2023-03-08T16:45:01.892Z,92117.66
2023-03-08T16:47:32.283Z,92104.31
2023-03-08T16:50:00.750Z,92103.56
2023-03-08T16:52:27.685Z,92110.44
2023-03-08T16:54:54.366Z,92106.63
2023-03-08T16:57:21.801Z,92115.38
2023-03-08T16:59:48.468Z,92113.47
2023-03-08T17:02:17.190Z,92125.69
2023-03-08T17:04:44.343Z,92130.94
2023-03-08T17:07:11.660Z,92123.97
2023-03-08T17:09:39.151Z,92131.50
2023-03-08T17:12:07.392Z,92122.94
2023-03-08T17:14:34.895Z,92112.19
2023-03-08T17:17:02.037Z,92120.94
2023-03-08T17:19:28.747Z,92106.00
2023-03-08T17:21:55.815Z,92125.88
2023-03-08T17:24:23.259Z,92121.66
2023-03-08T17:26:52.903Z,92122.81
2023-03-08T17:29:19.866Z,92132.34
2023-03-08T17:31:46.614Z,92133.81
2023-03-08T17:34:13.754Z,92140.34
2023-03-08T17:36:40.957Z,92148.75
2023-03-08T17:39:07.709Z,92141.50
2023-03-08T17:41:34.451Z,92156.72
2023-03-08T17:44:01.286Z,92147.50
2023-03-08T17:46:28.295Z,92162.75
2023-03-08T17:48:55.817Z,92170.00
2023-03-08T17:51:25.344Z,92170.00
2023-03-08T17:53:52.603Z,92153.94
2023-03-08T17:56:22.205Z,92157.72
2023-03-08T17:58:49.757Z,92145.91
2023-03-08T18:01:22.192Z,92152.34
2023-03-08T18:03:50.038Z,92150.00
2023-03-08T18:06:25.307Z,92151.66
2023-03-08T18:08:52.195Z,92148.53
2023-03-08T18:11:18.863Z,92152.34
2023-03-08T18:13:45.586Z,92156.63
2023-03-08T18:16:12.333Z,92143.66
2023-03-08T18:18:39.052Z,92134.84
2023-03-08T18:21:13.266Z,92153.19
2023-03-08T18:23:41.815Z,92155.84
2023-03-08T18:26:10.200Z,92158.09
2023-03-08T18:28:36.999Z,92162.63
2023-03-08T18:31:09.683Z,92161.22
2023-03-08T18:33:36.784Z,92162.75
2023-03-08T18:36:03.964Z,92163.56
2023-03-08T18:38:30.665Z,92163.97
2023-03-08T18:40:57.302Z,92151.03
2023-03-08T18:43:25.390Z,92146.41
2023-03-08T18:45:53.756Z,92136.84
2023-03-08T18:48:23.574Z,92149.47
2023-03-08T18:50:50.282Z,92145.22
2023-03-08T18:53:16.961Z,92140.16
2023-03-08T18:55:54.737Z,92142.88
2023-03-08T18:58:21.546Z,92141.38
2023-03-08T19:00:48.520Z,92140.97
2023-03-08T19:03:15.268Z,92142.47
2023-03-08T19:05:41.921Z,92152.38
2023-03-08T19:08:08.580Z,92155.44
2023-03-08T19:10:35.256Z,92170.31
2023-03-08T19:13:01.925Z,92168.34
2023-03-08T19:15:28.530Z,92150.72
2023-03-08T19:17:56.257Z,92152.22
2023-03-08T19:20:22.872Z,92130.31
2023-03-08T19:22:49.573Z,92120.72
2023-03-08T19:25:16.376Z,92119.19
2023-03-08T19:27:43.055Z,92111.53
2023-03-08T19:30:10.646Z,92119.91
2023-03-08T19:32:37.452Z,92117.91
2023-03-08T19:35:04.486Z,92115.28
2023-03-08T19:37:31.708Z,92101.50
2023-03-08T19:40:00.895Z,92116.78
2023-03-08T19:42:28.308Z,92115.59
2023-03-08T19:44:54.960Z,92123.16
2023-03-08T19:47:21.653Z,92128.13
2023-03-08T19:49:49.582Z,92124.22
2023-03-08T19:52:16.469Z,92116.94
2023-03-08T19:54:43.236Z,92125.34
2023-03-08T19:57:10.565Z,92125.81
2023-03-08T19:59:37.775Z,92142.19
2023-03-08T20:02:06.404Z,92126.50
2023-03-08T20:04:33.176Z,92120.38
2023-03-08T20:07:01.156Z,92137.97
2023-03-08T20:09:28.291Z,92111.19
2023-03-08T20:11:58.803Z,92118.91
2023-03-08T20:14:27.279Z,92117.44
2023-03-08T20:16:55.083Z,92113.50
2023-03-08T20:19:21.953Z,92121.91
2023-03-08T20:21:48.980Z,92120.75
2023-03-08T20:24:18.225Z,92140.97
2023-03-08T20:26:45.230Z,92138.28
2023-03-08T20:29:11.847Z,92129.47
2023-03-08T20:31:38.494Z,92132.53
2023-03-08T20:34:05.142Z,92137.94
2023-03-08T20:36:31.864Z,92143.63
2023-03-08T20:38:59.358Z,92143.63
2023-03-08T20:41:26.574Z,92139.47
2023-03-08T20:43:57.474Z,92132.53
2023-03-08T20:46:27.637Z,92141.00
2023-03-08T20:48:54.555Z,92138.69
2023-03-08T20:51:22.355Z,92120.34
2023-03-08T20:53:51.256Z,92131.41
2023-03-08T20:56:20.697Z,92114.63
2023-03-08T20:58:47.624Z,92125.75
2023-03-08T21:01:20.820Z,92117.75
2023-03-08T21:03:48.812Z,92131.91
2023-03-08T21:06:21.361Z,92117.41
2023-03-08T21:08:49.163Z,92130.09
2023-03-08T21:11:17.136Z,92117.09
2023-03-08T21:13:43.963Z,92117.09
2023-03-08T21:16:18.835Z,92110.69
2023-03-08T21:18:49.796Z,92116.38
2023-03-08T21:21:27.230Z,92114.94
2023-03-08T21:23:58.904Z,92100.78
2023-03-08T21:26:27.172Z,92116.47
2023-03-08T21:28:56.280Z,92100.88
2023-03-08T21:31:23.609Z,92099.31
2023-03-08T21:33:50.745Z,92100.13
2023-03-08T21:36:17.439Z,92105.47
2023-03-08T21:38:44.179Z,92094.03
2023-03-08T21:41:22.437Z,92092.13
2023-03-08T21:43:49.373Z,92111.22
2023-03-08T21:46:16.479Z,92113.13
2023-03-08T21:48:43.668Z,92112.44
2023-03-08T21:51:10.501Z,92115.84
2023-03-08T21:53:37.954Z,92123.91
2023-03-08T21:56:09.580Z,92121.22
2023-03-08T21:58:36.997Z,92122.03
2023-03-08T22:01:04.870Z,92116.28
2023-03-08T22:03:33.405Z,92117.00
2023-03-08T22:06:00.858Z,92112.41
2023-03-08T22:08:27.671Z,92114.66
2023-03-08T22:10:54.630Z,92118.56
2023-03-08T22:13:21.637Z,92104.88
2023-03-08T22:15:48.374Z,92113.66
2023-03-08T22:18:15.166Z,92103.38
2023-03-08T22:20:41.865Z,92097.28
2023-03-08T22:23:08.534Z,92096.50
2023-03-08T22:25:35.205Z,92087.31
2023-03-08T22:28:01.964Z,92084.97
2023-03-08T22:30:28.590Z,92101.44
2023-03-08T22:32:55.372Z,92108.69
2023-03-08T22:35:22.402Z,92104.47
2023-03-08T22:37:49.737Z,92092.59
2023-03-08T22:40:18.911Z,92101.03
2023-03-08T22:42:46.709Z,92105.63
2023-03-08T22:45:13.899Z,92091.44
2023-03-08T22:47:40.932Z,92075.91
2023-03-08T22:50:08.007Z,92092.75
2023-03-08T22:52:34.782Z,92088.50
2023-03-08T22:55:01.450Z,92098.03
2023-03-08T22:57:28.200Z,92103.03
2023-03-08T22:59:56.225Z,92098.78
2023-03-08T23:02:23.146Z,92098.44
2023-03-08T23:04:49.930Z,92106.47
2023-03-08T23:07:16.822Z,92120.97
2023-03-08T23:09:43.503Z,92114.09
2023-03-08T23:12:10.289Z,92111.03
2023-03-08T23:14:36.958Z,92115.25
2023-03-08T23:17:03.616Z,92109.94
2023-03-08T23:19:30.248Z,92104.59
2023-03-08T23:21:57.706Z,92093.16
2023-03-08T23:24:24.355Z,92093.94
2023-03-08T23:26:51.075Z,92083.66
2023-03-08T23:29:17.696Z,92072.97
2023-03-08T23:31:46.052Z,92073.75
2023-03-08T23:34:12.835Z,92076.78
2023-03-08T23:36:39.573Z,92081.31
2023-03-08T23:39:06.361Z,92083.66
2023-03-08T23:41:33.167Z,92076.00
2023-03-08T23:44:01.218Z,92062.97
2023-03-08T23:46:28.752Z,92060.72
2023-03-08T23:48:57.486Z,92059.19
2023-03-08T23:51:26.460Z,92066.53
2023-03-08T23:53:56.962Z,92062.34
2023-03-08T23:56:30.762Z,92063.91
2023-03-08T23:59:01.270Z,92053.94
